createdAt,value
2018-11-02T00:01:56.032Z,37.10
2018-11-02T00:04:24.679Z,40.57
2018-11-02T00:06:53.256Z,38.77
2018-11-02T00:09:21.789Z,35.20
2018-11-02T00:11:50.272Z,36.67
2018-11-02T00:14:18.814Z,37.53
2018-11-02T00:16:47.359Z,39.63
2018-11-02T00:19:15.980Z,43.33
2018-11-02T00:21:44.587Z,33.00
2018-11-02T00:24:13.069Z,43.80
2018-11-02T00:26:41.629Z,42.23
2018-11-02T00:29:10.154Z,42.17
2018-11-02T00:31:38.746Z,39.50
2018-11-02T00:34:07.313Z,39.47
2018-11-02T00:36:35.909Z,41.53
2018-11-02T00:39:05.531Z,38.50
2018-11-02T00:41:34.049Z,40.97
2018-11-02T00:44:02.601Z,38.47
2018-11-02T00:46:31.236Z,41.10
2018-11-02T00:48:59.746Z,43.53
2018-11-02T00:51:28.277Z,44.27
2018-11-02T00:53:56.763Z,38.50
2018-11-02T00:56:25.282Z,42.40
2018-11-02T00:58:53.880Z,44.13
2018-11-02T01:01:22.408Z,46.30
2018-11-02T01:03:51.063Z,41.50
2018-11-02T01:06:19.550Z,52.67
2018-11-02T01:08:48.105Z,46.10
2018-11-02T01:11:16.700Z,41.40
2018-11-02T01:13:45.193Z,40.33
2018-11-02T01:16:13.741Z,37.20
2018-11-02T01:18:42.676Z,39.10
2018-11-02T01:21:11.202Z,38.67
2018-11-02T01:23:39.693Z,42.40
2018-11-02T01:26:08.229Z,36.80
2018-11-02T01:28:36.837Z,38.30
2018-11-02T01:31:05.409Z,39.65
2018-11-02T01:33:39.069Z,42.00
2018-11-02T01:36:09.087Z,40.33
2018-11-02T01:38:37.845Z,41.00
2018-11-02T01:41:06.634Z,45.00
2018-11-02T01:43:35.237Z,39.77
2018-11-02T01:46:03.817Z,38.10
2018-11-02T01:48:32.317Z,36.07
2018-11-02T01:51:00.858Z,35.87
2018-11-02T01:53:29.459Z,35.23
2018-11-02T01:55:58.041Z,41.87
2018-11-02T01:58:26.606Z,36.53
2018-11-02T02:00:55.173Z,37.90
2018-11-02T02:03:23.682Z,37.60
2018-11-02T02:05:52.205Z,34.77
2018-11-02T02:08:20.808Z,36.90
2018-11-02T02:10:49.310Z,32.60
2018-11-02T02:13:17.880Z,35.57
2018-11-02T02:15:46.435Z,30.17
2018-11-02T02:18:15.044Z,37.17
2018-11-02T02:20:43.541Z,31.70
2018-11-02T02:23:12.098Z,31.23
2018-11-02T02:25:40.686Z,35.80
2018-11-02T02:28:09.334Z,35.20
2018-11-02T02:30:37.849Z,36.47
2018-11-02T02:33:06.430Z,31.47
2018-11-02T02:35:34.961Z,31.70
2018-11-02T02:38:03.475Z,32.00
2018-11-02T02:40:32.027Z,32.37
2018-11-02T02:43:00.738Z,29.70
2018-11-02T02:45:29.241Z,31.20
2018-11-02T02:47:57.738Z,32.43
2018-11-02T02:50:26.265Z,33.30
2018-11-02T02:52:54.789Z,33.40
2018-11-02T02:55:23.284Z,34.55
2018-11-02T02:57:51.774Z,33.50
2018-11-02T03:00:20.347Z,35.87
2018-11-02T03:02:48.874Z,30.43
2018-11-02T03:05:17.444Z,36.23
2018-11-02T03:07:45.978Z,35.70
2018-11-02T03:10:14.514Z,33.53
2018-11-02T03:12:43.054Z,32.40
2018-11-02T03:15:11.597Z,34.63
2018-11-02T03:17:40.162Z,32.47
2018-11-02T03:20:09.794Z,34.10
2018-11-02T03:22:38.577Z,36.93
2018-11-02T03:25:07.849Z,37.60
2018-11-02T03:27:36.405Z,38.63
2018-11-02T03:30:05.637Z,36.10
2018-11-02T03:32:34.118Z,33.87
2018-11-02T03:35:02.744Z,35.13
2018-11-02T03:37:31.262Z,34.80
2018-11-02T03:39:59.800Z,35.03
2018-11-02T03:42:28.315Z,36.53
2018-11-02T03:44:56.864Z,34.80
2018-11-02T03:47:25.482Z,41.33
2018-11-02T03:49:54.023Z,40.03
2018-11-02T03:52:22.527Z,44.80
2018-11-02T03:54:51.614Z,38.60
2018-11-02T03:57:20.149Z,31.93
2018-11-02T03:59:48.641Z,43.10
2018-11-02T04:02:17.244Z,43.20
2018-11-02T04:04:45.773Z,42.10
2018-11-02T04:07:14.373Z,43.87
2018-11-02T04:09:43.050Z,45.27
2018-11-02T04:12:11.538Z,39.33
2018-11-02T04:14:40.039Z,39.73
2018-11-02T04:17:08.562Z,39.00
2018-11-02T04:19:37.189Z,33.40
2018-11-02T04:22:05.885Z,38.23
2018-11-02T04:24:34.373Z,28.20
2018-11-02T04:27:02.934Z,17.33
2018-11-02T04:29:31.437Z,21.13
2018-11-02T04:32:00.149Z,14.30
2018-11-02T04:34:28.633Z,11.43
2018-11-02T04:36:57.140Z,9.73
2018-11-02T04:39:25.633Z,8.00
2018-11-02T04:41:54.120Z,7.73
2018-11-02T04:44:22.641Z,10.70
2018-11-02T04:46:51.120Z,12.97
2018-11-02T04:49:19.677Z,10.57
2018-11-02T04:51:48.138Z,4.80
2018-11-02T04:54:16.635Z,7.00
2018-11-02T04:56:45.152Z,8.10
2018-11-02T04:59:13.639Z,11.73
2018-11-02T05:01:42.183Z,5.37
2018-11-02T05:04:10.784Z,7.57
2018-11-02T05:06:39.277Z,8.00
2018-11-02T05:09:08.621Z,9.30
2018-11-02T05:11:37.231Z,5.00
2018-11-02T05:14:06.199Z,7.40
2018-11-02T05:16:34.684Z,8.10
2018-11-02T05:19:03.377Z,7.80
2018-11-02T05:21:31.932Z,9.27
2018-11-02T05:24:00.430Z,13.70
2018-11-02T05:26:28.963Z,4.33
2018-11-02T05:28:57.462Z,6.43
2018-11-02T05:31:26.007Z,6.60
2018-11-02T05:33:54.541Z,3.40
2018-11-02T05:36:23.026Z,5.60
2018-11-02T05:38:51.553Z,5.40
2018-11-02T05:41:20.222Z,6.27
2018-11-02T05:43:48.764Z,6.33
2018-11-02T05:46:17.273Z,7.50
2018-11-02T05:48:45.813Z,5.13
2018-11-02T05:51:14.361Z,5.13
2018-11-02T05:53:42.849Z,3.93
2018-11-02T05:56:11.382Z,6.92
2018-11-02T05:58:39.887Z,6.70
2018-11-02T06:01:08.457Z,9.30
2018-11-02T06:03:37.025Z,7.23
2018-11-02T06:06:06.486Z,12.57
2018-11-02T06:08:35.003Z,12.43
2018-11-02T06:11:03.575Z,11.13
2018-11-02T06:13:32.144Z,10.73
2018-11-02T06:16:00.682Z,9.17
2018-11-02T06:18:29.190Z,10.93
2018-11-02T06:20:57.728Z,7.33
2018-11-02T06:23:26.305Z,9.83
2018-11-02T06:25:54.876Z,6.40
2018-11-02T06:28:23.374Z,6.90
2018-11-02T06:30:51.992Z,8.70
2018-11-02T06:33:20.542Z,8.63
2018-11-02T06:35:49.115Z,7.53
2018-11-02T06:38:17.611Z,8.00
2018-11-02T06:40:46.106Z,11.93
2018-11-02T06:43:14.676Z,6.27
2018-11-02T06:45:43.177Z,10.50
2018-11-02T06:48:11.687Z,7.47
2018-11-02T06:50:40.268Z,6.57
2018-11-02T06:53:08.858Z,11.37
2018-11-02T06:55:37.400Z,16.30
2018-11-02T06:58:06.170Z,6.73
2018-11-02T07:00:34.835Z,8.87
2018-11-02T07:03:03.243Z,15.10
2018-11-02T07:05:31.793Z,15.23
2018-11-02T07:08:00.376Z,11.90
2018-11-02T07:10:28.818Z,15.40
2018-11-02T07:12:57.417Z,14.30
2018-11-02T07:15:25.877Z,11.13
2018-11-02T07:17:54.435Z,9.60
2018-11-02T07:20:22.991Z,11.63
2018-11-02T07:22:51.542Z,12.93
2018-11-02T07:25:20.190Z,8.30
2018-11-02T07:27:48.649Z,13.10
2018-11-02T07:30:17.186Z,7.03
2018-11-02T07:32:45.757Z,10.43
2018-11-02T07:35:14.301Z,12.50
2018-11-02T07:37:42.864Z,11.97
2018-11-02T07:40:12.097Z,6.20
2018-11-02T07:42:40.850Z,10.53
2018-11-02T07:45:09.928Z,12.73
2018-11-02T07:47:38.596Z,12.70
2018-11-02T07:50:09.198Z,10.07
2018-11-02T07:52:37.769Z,12.20
2018-11-02T07:55:08.121Z,22.10
2018-11-02T07:57:36.871Z,10.13
2018-11-02T08:00:05.580Z,19.40
2018-11-02T08:02:34.056Z,7.30
2018-11-02T08:05:02.563Z,14.07
2018-11-02T08:07:31.153Z,15.57
2018-11-02T08:09:59.694Z,13.70
2018-11-02T08:12:28.238Z,11.10
2018-11-02T08:14:56.810Z,16.73
2018-11-02T08:17:25.375Z,19.20
2018-11-02T08:19:53.947Z,13.00
2018-11-02T08:22:22.463Z,18.13
2018-11-02T08:24:51.001Z,17.10
2018-11-02T08:27:19.473Z,15.23
2018-11-02T08:29:47.998Z,14.70
2018-11-02T08:32:16.654Z,10.73
2018-11-02T08:34:45.114Z,18.33
2018-11-02T08:37:13.609Z,14.23
2018-11-02T08:39:42.100Z,11.83
2018-11-02T08:42:10.771Z,13.10
2018-11-02T08:44:39.304Z,13.90
2018-11-02T08:47:07.882Z,18.97
2018-11-02T08:49:36.374Z,13.77
2018-11-02T08:52:05.262Z,12.50
2018-11-02T08:54:33.855Z,7.30
2018-11-02T08:57:02.359Z,12.03
2018-11-02T08:59:31.036Z,6.47
2018-11-02T09:01:59.674Z,8.27
2018-11-02T09:04:28.359Z,10.50
2018-11-02T09:06:56.869Z,10.53
2018-11-02T09:09:25.362Z,9.20
2018-11-02T09:11:54.013Z,7.60
2018-11-02T09:14:22.486Z,9.13
2018-11-02T09:16:51.071Z,20.37
2018-11-02T09:19:19.713Z,11.93
2018-11-02T09:21:48.124Z,7.80
2018-11-02T09:24:16.627Z,12.03
2018-11-02T09:26:45.197Z,13.43
2018-11-02T09:29:13.684Z,8.30
2018-11-02T09:31:42.225Z,6.93
2018-11-02T09:34:10.737Z,11.20
2018-11-02T09:36:39.367Z,12.40
2018-11-02T09:39:10.010Z,11.13
2018-11-02T09:41:38.579Z,9.10
2018-11-02T09:44:07.077Z,6.83
2018-11-02T09:46:35.848Z,8.80
2018-11-02T09:49:04.402Z,6.00
2018-11-02T09:51:33.038Z,9.13
2018-11-02T09:54:01.601Z,14.13
2018-11-02T09:56:30.111Z,9.73
2018-11-02T09:58:58.675Z,11.57
2018-11-02T10:01:27.290Z,8.23
2018-11-02T10:03:55.783Z,8.70
2018-11-02T10:06:24.369Z,11.90
2018-11-02T10:08:52.943Z,9.17
2018-11-02T10:11:21.477Z,10.03
2018-11-02T10:13:50.030Z,10.63
2018-11-02T10:16:18.631Z,10.57
2018-11-02T10:18:47.141Z,13.43
2018-11-02T10:21:15.748Z,11.50
2018-11-02T10:23:44.344Z,11.20
2018-11-02T10:26:12.885Z,22.23
2018-11-02T10:28:41.484Z,12.93
2018-11-02T10:31:10.099Z,7.10
2018-11-02T10:33:38.626Z,19.47
2018-11-02T10:36:07.367Z,9.80
2018-11-02T10:38:36.037Z,10.63
2018-11-02T10:41:05.582Z,12.30
2018-11-02T10:43:34.363Z,12.13
2018-11-02T10:46:03.051Z,13.13
2018-11-02T10:48:31.681Z,9.37
2018-11-02T10:51:00.216Z,14.67
2018-11-02T10:53:28.809Z,12.43
2018-11-02T10:55:57.310Z,14.83
2018-11-02T10:58:25.853Z,9.57
2018-11-02T11:00:59.673Z,7.83
2018-11-02T11:03:28.079Z,14.73
2018-11-02T11:05:56.618Z,6.23
2018-11-02T11:08:25.219Z,9.50
2018-11-02T11:10:53.781Z,7.37
2018-11-02T11:13:22.683Z,9.80
2018-11-02T11:15:50.872Z,10.70
2018-11-02T11:18:19.372Z,9.93
2018-11-02T11:20:47.911Z,4.77
2018-11-02T11:23:16.483Z,4.83
2018-11-02T11:25:44.969Z,9.13
2018-11-02T11:28:13.553Z,5.80
2018-11-02T11:30:42.091Z,14.97
2018-11-02T11:33:10.642Z,6.87
2018-11-02T11:35:39.241Z,5.00
2018-11-02T11:38:07.898Z,5.90
2018-11-02T11:40:36.493Z,3.53
2018-11-02T11:43:05.041Z,7.13
2018-11-02T11:45:33.570Z,21.80
2018-11-02T11:48:02.103Z,4.33
2018-11-02T11:50:30.638Z,6.60
2018-11-02T11:52:59.213Z,5.60
2018-11-02T11:55:27.799Z,5.80
2018-11-02T11:57:56.360Z,5.23
2018-11-02T12:00:24.921Z,7.43
2018-11-02T12:02:53.882Z,5.80
2018-11-02T12:05:23.457Z,6.97
2018-11-02T12:07:52.010Z,6.57
2018-11-02T12:10:21.994Z,4.70
2018-11-02T12:12:50.482Z,9.07
2018-11-02T12:15:20.236Z,8.50
2018-11-02T12:17:49.209Z,4.50
2018-11-02T12:20:19.173Z,4.80
2018-11-02T12:22:48.397Z,7.70
2018-11-02T12:25:16.982Z,10.97
2018-11-02T12:27:45.594Z,4.57
2018-11-02T12:30:15.398Z,6.00
2018-11-02T12:32:43.941Z,9.13
2018-11-02T12:35:13.650Z,8.10
2018-11-02T12:37:42.269Z,4.40
2018-11-02T12:40:12.925Z,9.60
2018-11-02T12:42:41.904Z,5.53
2018-11-02T12:45:13.081Z,6.87
2018-11-02T12:47:42.007Z,6.07
2018-11-02T12:50:13.208Z,8.90
2018-11-02T12:52:41.920Z,18.53
2018-11-02T12:55:11.098Z,7.90
2018-11-02T12:57:39.819Z,7.90
2018-11-02T13:00:10.804Z,10.67
2018-11-02T13:02:39.505Z,8.73
2018-11-02T13:05:08.921Z,4.60
2018-11-02T13:07:37.810Z,5.00
2018-11-02T13:10:06.705Z,4.63
2018-11-02T13:12:35.281Z,6.97
2018-11-02T13:15:03.882Z,2.40
2018-11-02T13:17:32.517Z,12.73
2018-11-02T13:20:01.067Z,6.57
2018-11-02T13:22:29.557Z,9.93
2018-11-02T13:24:58.058Z,7.83
2018-11-02T13:27:26.624Z,2.87
2018-11-02T13:29:55.210Z,3.90
2018-11-02T13:32:23.831Z,4.63
2018-11-02T13:34:52.472Z,5.33
2018-11-02T13:37:21.293Z,4.53
2018-11-02T13:39:49.933Z,8.60
2018-11-02T13:42:18.481Z,6.50
2018-11-02T13:44:47.042Z,17.40
2018-11-02T13:47:15.617Z,4.37
2018-11-02T13:49:44.145Z,3.70
2018-11-02T13:52:12.785Z,5.53
2018-11-02T13:54:41.295Z,7.10
2018-11-02T13:57:09.878Z,16.37
2018-11-02T13:59:38.598Z,12.10
2018-11-02T14:02:07.937Z,10.57
2018-11-02T14:04:36.434Z,11.00
2018-11-02T14:07:04.987Z,6.70
2018-11-02T14:09:33.523Z,4.17
2018-11-02T14:12:02.074Z,4.93
2018-11-02T14:14:30.722Z,9.67
2018-11-02T14:16:59.258Z,6.10
2018-11-02T14:19:27.734Z,8.70
2018-11-02T14:21:56.376Z,7.30
2018-11-02T14:24:24.933Z,12.37
2018-11-02T14:26:53.439Z,10.53
2018-11-02T14:29:22.094Z,11.07
2018-11-02T14:31:50.635Z,10.07
2018-11-02T14:34:19.250Z,6.50
2018-11-02T14:36:47.916Z,15.87
2018-11-02T14:39:16.449Z,11.60
2018-11-02T14:41:45.368Z,8.60
2018-11-02T14:44:13.929Z,10.60
2018-11-02T14:46:42.649Z,7.25
2018-11-02T14:49:11.138Z,7.17
2018-11-02T14:51:39.818Z,11.67
2018-11-02T14:54:08.345Z,9.50
2018-11-02T14:56:36.925Z,10.73
2018-11-02T14:59:05.530Z,15.63
2018-11-02T15:01:34.190Z,18.90
2018-11-02T15:04:03.136Z,11.27
2018-11-02T15:06:31.642Z,12.80
2018-11-02T15:09:00.190Z,10.50
2018-11-02T15:11:28.825Z,8.90
2018-11-02T15:13:57.223Z,12.70
2018-11-02T15:16:25.908Z,11.43
2018-11-02T15:18:54.483Z,11.97
2018-11-02T15:21:22.989Z,13.53
2018-11-02T15:23:51.591Z,18.87
2018-11-02T15:26:20.177Z,13.97
2018-11-02T15:28:48.657Z,15.63
2018-11-02T15:31:17.133Z,16.07
2018-11-02T15:33:45.700Z,15.23
2018-11-02T15:36:14.198Z,12.73
2018-11-02T15:38:42.742Z,9.90
2018-11-02T15:41:11.364Z,11.27
2018-11-02T15:43:39.869Z,12.03
2018-11-02T15:46:08.407Z,12.10
2018-11-02T15:48:36.906Z,19.70
2018-11-02T15:51:05.643Z,15.13
2018-11-02T15:53:34.171Z,16.63
2018-11-02T15:56:02.746Z,12.07
2018-11-02T15:58:31.357Z,15.80
2018-11-02T16:00:59.895Z,17.43
2018-11-02T16:03:28.531Z,20.63
2018-11-02T16:05:57.055Z,28.93
2018-11-02T16:08:25.540Z,15.57
2018-11-02T16:10:54.110Z,18.97
2018-11-02T16:13:22.676Z,17.50
2018-11-02T16:15:51.381Z,23.30
2018-11-02T16:18:19.976Z,24.80
2018-11-02T16:20:48.511Z,30.70
2018-11-02T16:23:17.065Z,18.40
2018-11-02T16:25:45.613Z,17.90
2018-11-02T16:28:14.086Z,21.47
2018-11-02T16:30:42.638Z,22.50
2018-11-02T16:33:11.174Z,20.30
2018-11-02T16:35:39.713Z,29.27
2018-11-02T16:38:08.208Z,25.10
2018-11-02T16:40:36.746Z,22.07
2018-11-02T16:43:05.453Z,21.07
2018-11-02T16:45:34.027Z,22.17
2018-11-02T16:48:02.674Z,20.03
2018-11-02T16:50:31.245Z,17.35
2018-11-02T16:52:59.740Z,22.93
2018-11-02T16:55:28.285Z,22.90
2018-11-02T16:57:57.015Z,20.80
2018-11-02T17:00:25.505Z,23.83
2018-11-02T17:02:54.088Z,24.60
2018-11-02T17:05:22.613Z,21.50
2018-11-02T17:07:51.125Z,17.60
2018-11-02T17:10:19.835Z,21.30
2018-11-02T17:12:48.387Z,22.80
2018-11-02T17:15:16.885Z,19.13
2018-11-02T17:17:45.489Z,24.13
2018-11-02T17:20:15.205Z,19.30
2018-11-02T17:22:43.706Z,23.73
2018-11-02T17:25:12.670Z,34.60
2018-11-02T17:27:41.326Z,25.53
2018-11-02T17:30:12.722Z,22.73
2018-11-02T17:32:41.376Z,17.60
2018-11-02T17:35:10.467Z,26.90
2018-11-02T17:37:38.976Z,19.03
2018-11-02T17:40:10.131Z,17.05
2018-11-02T17:42:38.667Z,23.90
2018-11-02T17:45:09.028Z,21.52
2018-11-02T17:47:38.729Z,23.30
2018-11-02T17:50:08.379Z,17.50
2018-11-02T17:52:36.938Z,19.57
2018-11-02T17:55:05.606Z,18.50
2018-11-02T17:57:34.220Z,20.27
2018-11-02T18:00:02.783Z,25.73
2018-11-02T18:02:37.787Z,16.93
2018-11-02T18:05:06.879Z,26.40
2018-11-02T18:07:35.509Z,23.53
2018-11-02T18:10:04.240Z,21.77
2018-11-02T18:12:32.749Z,19.20
2018-11-02T18:15:01.276Z,21.90
2018-11-02T18:17:29.793Z,26.07
2018-11-02T18:19:58.314Z,24.93
2018-11-02T18:22:26.899Z,22.77
2018-11-02T18:24:55.404Z,26.70
2018-11-02T18:27:23.945Z,27.53
2018-11-02T18:29:52.570Z,26.87
2018-11-02T18:32:21.119Z,32.00
2018-11-02T18:34:49.791Z,27.60
2018-11-02T18:37:18.306Z,34.60
2018-11-02T18:39:46.861Z,28.77
2018-11-02T18:42:15.453Z,34.27
2018-11-02T18:44:44.042Z,29.20
2018-11-02T18:47:12.607Z,24.77
2018-11-02T18:49:41.152Z,26.50
2018-11-02T18:52:09.749Z,23.50
2018-11-02T18:54:38.365Z,26.37
2018-11-02T18:57:07.082Z,23.73
2018-11-02T18:59:35.630Z,20.77
2018-11-02T19:02:04.233Z,19.67
2018-11-02T19:04:33.169Z,24.70
2018-11-02T19:07:02.609Z,24.47
2018-11-02T19:09:31.769Z,24.83
2018-11-02T19:12:00.583Z,21.80
2018-11-02T19:14:29.184Z,22.47
2018-11-02T19:16:57.930Z,20.20
2018-11-02T19:19:26.438Z,17.57
2018-11-02T19:21:55.097Z,17.20
2018-11-02T19:24:24.573Z,16.77
2018-11-02T19:26:53.225Z,34.90
2018-11-02T19:29:21.766Z,24.20
2018-11-02T19:31:50.254Z,25.50
2018-11-02T19:34:18.964Z,22.53
2018-11-02T19:36:47.456Z,24.27
2018-11-02T19:39:16.130Z,21.27
2018-11-02T19:41:44.958Z,25.90
2018-11-02T19:44:13.534Z,30.23
2018-11-02T19:46:42.116Z,24.73
2018-11-02T19:49:10.804Z,25.03
2018-11-02T19:51:39.303Z,20.20
2018-11-02T19:54:07.942Z,24.40
2018-11-02T19:56:36.537Z,23.53
2018-11-02T19:59:05.127Z,23.17
2018-11-02T20:01:33.731Z,21.93
2018-11-02T20:04:02.233Z,21.83
2018-11-02T20:06:30.977Z,34.23
2018-11-02T20:08:59.634Z,24.47
2018-11-02T20:11:28.150Z,29.83
2018-11-02T20:13:56.873Z,21.70
2018-11-02T20:16:25.453Z,23.30
2018-11-02T20:18:54.135Z,25.00
2018-11-02T20:21:22.637Z,24.57
2018-11-02T20:23:51.196Z,19.00
2018-11-02T20:26:19.986Z,25.87
2018-11-02T20:28:48.513Z,26.33
2018-11-02T20:31:17.119Z,26.90
2018-11-02T20:33:45.862Z,34.03
2018-11-02T20:36:14.526Z,29.70
2018-11-02T20:38:43.078Z,28.60
2018-11-02T20:41:11.686Z,27.83
2018-11-02T20:43:40.223Z,26.73
2018-11-02T20:46:08.824Z,24.37
2018-11-02T20:48:37.413Z,28.27
2018-11-02T20:51:06.549Z,34.50
2018-11-02T20:53:35.100Z,28.60
2018-11-02T20:56:03.719Z,24.83
2018-11-02T20:58:32.362Z,28.43
2018-11-02T21:01:01.009Z,25.80
2018-11-02T21:03:29.614Z,23.10
2018-11-02T21:05:58.165Z,27.37
2018-11-02T21:08:26.857Z,26.07
2018-11-02T21:10:55.373Z,23.80
2018-11-02T21:13:24.017Z,30.83
2018-11-02T21:15:52.749Z,29.93
2018-11-02T21:18:21.290Z,23.00
2018-11-02T21:20:49.894Z,26.53
2018-11-02T21:23:18.428Z,21.53
2018-11-02T21:25:46.990Z,22.57
2018-11-02T21:28:15.623Z,26.47
2018-11-02T21:30:44.153Z,22.73
2018-11-02T21:33:12.963Z,24.90
2018-11-02T21:35:41.469Z,26.47
2018-11-02T21:38:10.092Z,23.33
2018-11-02T21:40:38.561Z,23.30
2018-11-02T21:43:07.355Z,21.67
2018-11-02T21:45:36.088Z,27.40
2018-11-02T21:48:04.689Z,25.93
2018-11-02T21:50:33.494Z,23.20
2018-11-02T21:53:02.507Z,22.87
2018-11-02T21:55:31.057Z,23.00
2018-11-02T21:57:59.707Z,23.80
2018-11-02T22:00:28.260Z,24.33
2018-11-02T22:02:56.931Z,28.03
2018-11-02T22:05:25.445Z,21.73
2018-11-02T22:07:54.046Z,25.97
2018-11-02T22:10:22.561Z,22.77
2018-11-02T22:12:51.117Z,24.20
2018-11-02T22:15:19.734Z,27.83
2018-11-02T22:17:48.287Z,24.73
2018-11-02T22:20:17.005Z,23.73
2018-11-02T22:22:45.696Z,24.43
2018-11-02T22:25:14.996Z,25.97
2018-11-02T22:27:43.844Z,35.00
2018-11-02T22:30:14.903Z,24.23
2018-11-02T22:32:43.389Z,28.93
2018-11-02T22:35:12.638Z,36.90
2018-11-02T22:37:41.333Z,37.33
2018-11-02T22:40:11.134Z,33.23
2018-11-02T22:42:40.030Z,33.00
2018-11-02T22:45:09.223Z,34.30
2018-11-02T22:47:37.773Z,42.93
2018-11-02T22:50:06.993Z,50.77
2018-11-02T22:52:35.698Z,31.47
2018-11-02T22:55:04.194Z,39.67
2018-11-02T22:57:32.689Z,31.70
2018-11-02T23:00:01.246Z,33.13
2018-11-02T23:02:32.709Z,35.47
2018-11-02T23:05:01.266Z,38.53
2018-11-02T23:07:29.876Z,42.43
2018-11-02T23:09:58.437Z,38.53
2018-11-02T23:12:26.985Z,35.33
2018-11-02T23:14:55.465Z,42.97
2018-11-02T23:17:24.034Z,37.20
2018-11-02T23:19:52.564Z,39.60
2018-11-02T23:22:21.515Z,40.77
2018-11-02T23:24:50.436Z,45.63
2018-11-02T23:27:18.979Z,41.50
2018-11-02T23:29:47.628Z,42.43
2018-11-02T23:32:16.417Z,40.00
2018-11-02T23:34:45.010Z,38.97
2018-11-02T23:37:13.597Z,37.90
2018-11-02T23:39:42.154Z,42.53
2018-11-02T23:42:10.742Z,45.07
2018-11-02T23:44:39.253Z,45.57
2018-11-02T23:47:07.785Z,49.33
2018-11-02T23:49:36.350Z,37.67
2018-11-02T23:52:04.944Z,46.20
2018-11-02T23:54:33.465Z,43.30
2018-11-02T23:57:02.023Z,40.17
2018-11-02T23:59:30.705Z,35.83
